sensor_id;sensor_type;location;lat;lon;timestamp;temperature;humidity
43808;DHT22;29438;50.664;10.098;2023-01-08T00:00:06;5.90;88.20
43808;DHT22;29438;50.664;10.098;2023-01-08T00:02:32;5.90;88.40
43808;DHT22;29438;50.664;10.098;2023-01-08T00:04:58;5.90;88.30
43808;DHT22;29438;50.664;10.098;2023-01-08T00:07:23;5.90;88.30
43808;DHT22;29438;50.664;10.098;2023-01-08T00:09:48;5.90;88.00
43808;DHT22;29438;50.664;10.098;2023-01-08T00:12:15;6.00;87.90
43808;DHT22;29438;50.664;10.098;2023-01-08T00:14:40;6.00;87.60
43808;DHT22;29438;50.664;10.098;2023-01-08T00:17:06;6.00;87.80
43808;DHT22;29438;50.664;10.098;2023-01-08T00:19:32;6.10;87.80
43808;DHT22;29438;50.664;10.098;2023-01-08T00:21:58;6.10;87.70
43808;DHT22;29438;50.664;10.098;2023-01-08T00:24:24;6.10;87.90
43808;DHT22;29438;50.664;10.098;2023-01-08T00:26:49;6.10;87.90
43808;DHT22;29438;50.664;10.098;2023-01-08T00:29:14;6.10;88.00
43808;DHT22;29438;50.664;10.098;2023-01-08T00:31:40;6.10;88.10
43808;DHT22;29438;50.664;10.098;2023-01-08T00:34:06;6.10;88.20
43808;DHT22;29438;50.664;10.098;2023-01-08T00:36:31;6.10;88.20
43808;DHT22;29438;50.664;10.098;2023-01-08T00:38:58;6.10;88.10
43808;DHT22;29438;50.664;10.098;2023-01-08T00:41:23;6.10;88.00
43808;DHT22;29438;50.664;10.098;2023-01-08T00:43:49;6.10;88.00
43808;DHT22;29438;50.664;10.098;2023-01-08T00:46:14;6.20;87.70
43808;DHT22;29438;50.664;10.098;2023-01-08T00:48:40;6.20;87.60
43808;DHT22;29438;50.664;10.098;2023-01-08T00:51:07;6.20;87.40
43808;DHT22;29438;50.664;10.098;2023-01-08T00:53:33;6.00;88.00
43808;DHT22;29438;50.664;10.098;2023-01-08T00:56:03;5.90;88.60
43808;DHT22;29438;50.664;10.098;2023-01-08T00:58:29;5.70;88.80
43808;DHT22;29438;50.664;10.098;2023-01-08T01:00:54;5.50;89.30
43808;DHT22;29438;50.664;10.098;2023-01-08T01:03:20;5.30;89.60
43808;DHT22;29438;50.664;10.098;2023-01-08T01:05:46;5.20;90.00
43808;DHT22;29438;50.664;10.098;2023-01-08T01:08:11;5.10;90.40
43808;DHT22;29438;50.664;10.098;2023-01-08T01:10:40;5.10;90.70
43808;DHT22;29438;50.664;10.098;2023-01-08T01:13:05;5.10;90.70
43808;DHT22;29438;50.664;10.098;2023-01-08T01:15:31;5.10;90.70
43808;DHT22;29438;50.664;10.098;2023-01-08T01:17:56;5.20;90.70
43808;DHT22;29438;50.664;10.098;2023-01-08T01:20:22;5.20;90.60
43808;DHT22;29438;50.664;10.098;2023-01-08T01:22:48;5.20;90.70
43808;DHT22;29438;50.664;10.098;2023-01-08T01:25:13;5.20;90.70
43808;DHT22;29438;50.664;10.098;2023-01-08T01:27:39;5.20;90.90
43808;DHT22;29438;50.664;10.098;2023-01-08T01:30:05;5.30;91.00
43808;DHT22;29438;50.664;10.098;2023-01-08T01:32:31;5.40;90.90
43808;DHT22;29438;50.664;10.098;2023-01-08T01:34:57;5.40;90.70
43808;DHT22;29438;50.664;10.098;2023-01-08T01:37:22;5.50;90.50
43808;DHT22;29438;50.664;10.098;2023-01-08T01:39:48;5.50;90.40
43808;DHT22;29438;50.664;10.098;2023-01-08T01:42:16;5.50;90.50
43808;DHT22;29438;50.664;10.098;2023-01-08T01:45:00;5.50;90.50
43808;DHT22;29438;50.664;10.098;2023-01-08T01:47:32;5.50;90.70
43808;DHT22;29438;50.664;10.098;2023-01-08T01:52:32;5.50;90.80
43808;DHT22;29438;50.664;10.098;2023-01-08T01:55:00;5.70;91.30
43808;DHT22;29438;50.664;10.098;2023-01-08T01:57:27;5.80;91.20
43808;DHT22;29438;50.664;10.098;2023-01-08T01:59:54;5.80;91.20
43808;DHT22;29438;50.664;10.098;2023-01-08T02:02:20;6.00;91.10
43808;DHT22;29438;50.664;10.098;2023-01-08T02:04:46;6.00;90.80
43808;DHT22;29438;50.664;10.098;2023-01-08T02:07:15;6.00;90.80
43808;DHT22;29438;50.664;10.098;2023-01-08T02:12:14;6.10;90.80
43808;DHT22;29438;50.664;10.098;2023-01-08T02:15:21;6.10;90.10
43808;DHT22;29438;50.664;10.098;2023-01-08T02:17:57;6.00;89.80
43808;DHT22;29438;50.664;10.098;2023-01-08T02:20:31;5.80;89.90
43808;DHT22;29438;50.664;10.098;2023-01-08T02:28:25;5.80;90.60
43808;DHT22;29438;50.664;10.098;2023-01-08T02:30:51;6.00;90.80
43808;DHT22;29438;50.664;10.098;2023-01-08T02:33:18;6.00;90.40
43808;DHT22;29438;50.664;10.098;2023-01-08T02:35:49;5.90;90.30
43808;DHT22;29438;50.664;10.098;2023-01-08T02:38:17;5.90;90.30
43808;DHT22;29438;50.664;10.098;2023-01-08T02:40:54;6.00;90.50
43808;DHT22;29438;50.664;10.098;2023-01-08T02:43:41;6.10;90.80
43808;DHT22;29438;50.664;10.098;2023-01-08T02:46:13;6.40;90.90
43808;DHT22;29438;50.664;10.098;2023-01-08T02:48:44;6.50;90.70
43808;DHT22;29438;50.664;10.098;2023-01-08T02:51:20;6.50;90.60
43808;DHT22;29438;50.664;10.098;2023-01-08T02:53:50;6.70;90.30
43808;DHT22;29438;50.664;10.098;2023-01-08T02:56:21;6.70;89.90
43808;DHT22;29438;50.664;10.098;2023-01-08T02:58:49;6.50;89.40
43808;DHT22;29438;50.664;10.098;2023-01-08T03:01:17;6.40;89.20
43808;DHT22;29438;50.664;10.098;2023-01-08T03:03:58;6.30;89.20
43808;DHT22;29438;50.664;10.098;2023-01-08T03:06:25;6.20;89.50
43808;DHT22;29438;50.664;10.098;2023-01-08T03:08:53;6.20;89.60
43808;DHT22;29438;50.664;10.098;2023-01-08T03:11:20;6.20;89.50
43808;DHT22;29438;50.664;10.098;2023-01-08T03:16:51;6.20;89.60
43808;DHT22;29438;50.664;10.098;2023-01-08T03:19:35;6.10;89.10
43808;DHT22;29438;50.664;10.098;2023-01-08T03:22:04;5.90;89.00
43808;DHT22;29438;50.664;10.098;2023-01-08T03:24:33;5.80;89.60
43808;DHT22;29438;50.664;10.098;2023-01-08T03:27:02;5.80;89.70
43808;DHT22;29438;50.664;10.098;2023-01-08T03:29:28;5.70;89.70
43808;DHT22;29438;50.664;10.098;2023-01-08T03:31:58;5.70;89.80
43808;DHT22;29438;50.664;10.098;2023-01-08T03:34:27;5.70;89.90
43808;DHT22;29438;50.664;10.098;2023-01-08T03:36:57;5.60;89.90
43808;DHT22;29438;50.664;10.098;2023-01-08T03:39:44;5.50;89.80
43808;DHT22;29438;50.664;10.098;2023-01-08T03:42:13;5.50;89.90
43808;DHT22;29438;50.664;10.098;2023-01-08T03:44:39;5.50;90.10
43808;DHT22;29438;50.664;10.098;2023-01-08T03:47:07;5.50;90.20
43808;DHT22;29438;50.664;10.098;2023-01-08T03:49:34;5.50;90.00
43808;DHT22;29438;50.664;10.098;2023-01-08T03:52:00;5.40;89.80
43808;DHT22;29438;50.664;10.098;2023-01-08T03:54:30;5.40;89.50
43808;DHT22;29438;50.664;10.098;2023-01-08T03:56:56;5.30;89.60
43808;DHT22;29438;50.664;10.098;2023-01-08T03:59:21;5.20;89.80
43808;DHT22;29438;50.664;10.098;2023-01-08T04:01:47;5.30;90.20
43808;DHT22;29438;50.664;10.098;2023-01-08T04:04:12;5.20;90.20
43808;DHT22;29438;50.664;10.098;2023-01-08T04:06:38;5.10;90.50
43808;DHT22;29438;50.664;10.098;2023-01-08T04:09:04;5.10;90.80
43808;DHT22;29438;50.664;10.098;2023-01-08T04:11:30;5.10;91.00
43808;DHT22;29438;50.664;10.098;2023-01-08T04:13:56;5.00;91.00
43808;DHT22;29438;50.664;10.098;2023-01-08T04:16:22;5.00;91.20
43808;DHT22;29438;50.664;10.098;2023-01-08T04:18:47;5.00;91.20
43808;DHT22;29438;50.664;10.098;2023-01-08T04:21:12;5.00;91.20
43808;DHT22;29438;50.664;10.098;2023-01-08T04:23:38;5.00;91.40
43808;DHT22;29438;50.664;10.098;2023-01-08T04:26:07;5.00;91.40
43808;DHT22;29438;50.664;10.098;2023-01-08T04:28:34;5.00;91.40
43808;DHT22;29438;50.664;10.098;2023-01-08T04:31:03;5.10;91.30
43808;DHT22;29438;50.664;10.098;2023-01-08T04:33:29;5.00;91.30
43808;DHT22;29438;50.664;10.098;2023-01-08T04:35:54;5.10;91.40
43808;DHT22;29438;50.664;10.098;2023-01-08T04:38:19;5.10;91.40
43808;DHT22;29438;50.664;10.098;2023-01-08T04:40:45;5.20;91.70
43808;DHT22;29438;50.664;10.098;2023-01-08T04:43:10;5.30;91.90
43808;DHT22;29438;50.664;10.098;2023-01-08T04:45:36;5.30;91.90
43808;DHT22;29438;50.664;10.098;2023-01-08T04:48:01;5.30;92.00
43808;DHT22;29438;50.664;10.098;2023-01-08T04:50:27;5.30;91.70
43808;DHT22;29438;50.664;10.098;2023-01-08T04:52:53;5.30;91.60
43808;DHT22;29438;50.664;10.098;2023-01-08T04:55:18;5.30;91.80
43808;DHT22;29438;50.664;10.098;2023-01-08T04:57:44;5.30;91.60
43808;DHT22;29438;50.664;10.098;2023-01-08T05:00:10;5.20;91.60
43808;DHT22;29438;50.664;10.098;2023-01-08T05:02:36;5.20;91.80
43808;DHT22;29438;50.664;10.098;2023-01-08T05:05:01;5.30;91.80
43808;DHT22;29438;50.664;10.098;2023-01-08T05:07:27;5.20;91.80
43808;DHT22;29438;50.664;10.098;2023-01-08T05:09:52;5.20;91.90
43808;DHT22;29438;50.664;10.098;2023-01-08T05:12:18;5.20;91.90
43808;DHT22;29438;50.664;10.098;2023-01-08T05:14:44;5.20;92.10
43808;DHT22;29438;50.664;10.098;2023-01-08T05:17:09;5.20;92.30
43808;DHT22;29438;50.664;10.098;2023-01-08T05:19:35;5.20;92.40
43808;DHT22;29438;50.664;10.098;2023-01-08T05:22:01;5.20;92.50
43808;DHT22;29438;50.664;10.098;2023-01-08T05:24:26;5.20;92.60
43808;DHT22;29438;50.664;10.098;2023-01-08T05:26:52;5.30;92.80
43808;DHT22;29438;50.664;10.098;2023-01-08T05:29:17;5.30;93.00
43808;DHT22;29438;50.664;10.098;2023-01-08T05:31:43;5.30;93.00
43808;DHT22;29438;50.664;10.098;2023-01-08T05:34:09;5.40;93.40
43808;DHT22;29438;50.664;10.098;2023-01-08T05:36:34;5.40;93.40
43808;DHT22;29438;50.664;10.098;2023-01-08T05:39:00;5.90;94.00
43808;DHT22;29438;50.664;10.098;2023-01-08T05:41:25;6.20;93.90
43808;DHT22;29438;50.664;10.098;2023-01-08T05:43:51;6.40;94.00
43808;DHT22;29438;50.664;10.098;2023-01-08T05:46:16;6.50;93.80
43808;DHT22;29438;50.664;10.098;2023-01-08T05:48:42;6.50;93.10
43808;DHT22;29438;50.664;10.098;2023-01-08T05:51:07;5.80;91.00
43808;DHT22;29438;50.664;10.098;2023-01-08T05:53:33;5.40;91.40
43808;DHT22;29438;50.664;10.098;2023-01-08T05:56:04;5.20;91.80
43808;DHT22;29438;50.664;10.098;2023-01-08T05:58:30;5.10;92.10
43808;DHT22;29438;50.664;10.098;2023-01-08T06:01:04;5.00;92.40
43808;DHT22;29438;50.664;10.098;2023-01-08T06:03:30;5.00;92.50
43808;DHT22;29438;50.664;10.098;2023-01-08T06:06:00;5.00;92.60
43808;DHT22;29438;50.664;10.098;2023-01-08T06:08:26;4.90;92.50
43808;DHT22;29438;50.664;10.098;2023-01-08T06:10:52;4.80;92.50
43808;DHT22;29438;50.664;10.098;2023-01-08T06:13:17;4.80;92.60
43808;DHT22;29438;50.664;10.098;2023-01-08T06:15:43;4.80;92.60
43808;DHT22;29438;50.664;10.098;2023-01-08T06:18:08;4.90;92.80
43808;DHT22;29438;50.664;10.098;2023-01-08T06:20:34;4.90;92.80
43808;DHT22;29438;50.664;10.098;2023-01-08T06:22:59;4.90;92.80
43808;DHT22;29438;50.664;10.098;2023-01-08T06:25:25;4.90;92.90
43808;DHT22;29438;50.664;10.098;2023-01-08T06:27:51;4.90;92.90
43808;DHT22;29438;50.664;10.098;2023-01-08T06:30:17;4.90;93.00
43808;DHT22;29438;50.664;10.098;2023-01-08T06:32:42;4.90;93.00
43808;DHT22;29438;50.664;10.098;2023-01-08T06:35:08;4.90;93.20
43808;DHT22;29438;50.664;10.098;2023-01-08T06:37:34;4.90;93.20
43808;DHT22;29438;50.664;10.098;2023-01-08T06:39:59;4.80;93.20
43808;DHT22;29438;50.664;10.098;2023-01-08T06:42:25;4.80;93.20
43808;DHT22;29438;50.664;10.098;2023-01-08T06:44:50;4.70;93.30
43808;DHT22;29438;50.664;10.098;2023-01-08T06:47:16;4.70;93.30
43808;DHT22;29438;50.664;10.098;2023-01-08T06:49:41;4.70;93.40
43808;DHT22;29438;50.664;10.098;2023-01-08T06:52:07;4.70;93.50
43808;DHT22;29438;50.664;10.098;2023-01-08T06:54:32;4.70;93.60
43808;DHT22;29438;50.664;10.098;2023-01-08T06:56:57;4.70;93.60
43808;DHT22;29438;50.664;10.098;2023-01-08T06:59:23;4.70;93.70
43808;DHT22;29438;50.664;10.098;2023-01-08T07:01:48;4.60;93.70
43808;DHT22;29438;50.664;10.098;2023-01-08T07:04:15;4.60;93.80
43808;DHT22;29438;50.664;10.098;2023-01-08T07:06:41;4.50;93.70
43808;DHT22;29438;50.664;10.098;2023-01-08T07:09:06;4.50;93.70
43808;DHT22;29438;50.664;10.098;2023-01-08T07:11:32;4.40;93.70
43808;DHT22;29438;50.664;10.098;2023-01-08T07:13:58;4.50;93.80
43808;DHT22;29438;50.664;10.098;2023-01-08T07:16:23;4.50;93.90
43808;DHT22;29438;50.664;10.098;2023-01-08T07:18:49;4.70;94.10
43808;DHT22;29438;50.664;10.098;2023-01-08T07:21:15;5.00;94.30
43808;DHT22;29438;50.664;10.098;2023-01-08T07:23:40;5.20;94.50
43808;DHT22;29438;50.664;10.098;2023-01-08T07:26:06;5.60;94.70
43808;DHT22;29438;50.664;10.098;2023-01-08T07:28:33;5.80;94.60
43808;DHT22;29438;50.664;10.098;2023-01-08T07:31:02;6.00;94.50
43808;DHT22;29438;50.664;10.098;2023-01-08T07:33:28;6.10;94.20
43808;DHT22;29438;50.664;10.098;2023-01-08T07:35:54;6.20;94.00
43808;DHT22;29438;50.664;10.098;2023-01-08T07:38:21;6.20;93.80
43808;DHT22;29438;50.664;10.098;2023-01-08T07:40:46;6.20;93.60
43808;DHT22;29438;50.664;10.098;2023-01-08T07:43:12;6.30;93.40
43808;DHT22;29438;50.664;10.098;2023-01-08T07:45:38;6.30;93.20
43808;DHT22;29438;50.664;10.098;2023-01-08T07:48:04;6.30;93.10
43808;DHT22;29438;50.664;10.098;2023-01-08T07:50:29;6.30;93.10
43808;DHT22;29438;50.664;10.098;2023-01-08T07:52:57;6.40;92.90
43808;DHT22;29438;50.664;10.098;2023-01-08T07:55:22;6.40;92.90
43808;DHT22;29438;50.664;10.098;2023-01-08T07:57:48;6.50;92.80
43808;DHT22;29438;50.664;10.098;2023-01-08T08:00:13;6.50;92.70
43808;DHT22;29438;50.664;10.098;2023-01-08T08:02:39;6.40;92.60
43808;DHT22;29438;50.664;10.098;2023-01-08T08:05:05;6.50;92.50
43808;DHT22;29438;50.664;10.098;2023-01-08T08:07:30;6.50;92.30
43808;DHT22;29438;50.664;10.098;2023-01-08T08:09:56;6.60;92.20
43808;DHT22;29438;50.664;10.098;2023-01-08T08:12:21;6.60;91.90
43808;DHT22;29438;50.664;10.098;2023-01-08T08:14:47;6.70;91.70
43808;DHT22;29438;50.664;10.098;2023-01-08T08:17:12;6.70;91.50
43808;DHT22;29438;50.664;10.098;2023-01-08T08:19:38;6.70;91.50
43808;DHT22;29438;50.664;10.098;2023-01-08T08:22:05;6.70;91.50
43808;DHT22;29438;50.664;10.098;2023-01-08T08:24:31;6.70;91.60
43808;DHT22;29438;50.664;10.098;2023-01-08T08:26:56;6.70;91.70
43808;DHT22;29438;50.664;10.098;2023-01-08T08:29:22;6.80;91.80
43808;DHT22;29438;50.664;10.098;2023-01-08T08:31:47;6.80;91.60
43808;DHT22;29438;50.664;10.098;2023-01-08T08:34:13;6.90;91.60
43808;DHT22;29438;50.664;10.098;2023-01-08T08:36:38;6.90;91.60
43808;DHT22;29438;50.664;10.098;2023-01-08T08:39:04;6.90;91.40
43808;DHT22;29438;50.664;10.098;2023-01-08T08:41:29;6.90;91.50
43808;DHT22;29438;50.664;10.098;2023-01-08T08:43:55;6.90;91.50
43808;DHT22;29438;50.664;10.098;2023-01-08T08:46:20;6.90;91.60
43808;DHT22;29438;50.664;10.098;2023-01-08T08:48:46;6.90;91.70
43808;DHT22;29438;50.664;10.098;2023-01-08T08:51:12;7.00;91.80
43808;DHT22;29438;50.664;10.098;2023-01-08T08:53:38;7.00;91.70
43808;DHT22;29438;50.664;10.098;2023-01-08T08:56:04;7.00;91.40
43808;DHT22;29438;50.664;10.098;2023-01-08T08:58:29;7.00;91.40
43808;DHT22;29438;50.664;10.098;2023-01-08T09:01:00;7.00;91.30
43808;DHT22;29438;50.664;10.098;2023-01-08T09:03:26;7.00;91.30
43808;DHT22;29438;50.664;10.098;2023-01-08T09:05:51;7.00;91.20
43808;DHT22;29438;50.664;10.098;2023-01-08T09:08:17;7.00;91.30
43808;DHT22;29438;50.664;10.098;2023-01-08T09:10:42;7.10;91.40
43808;DHT22;29438;50.664;10.098;2023-01-08T09:13:08;7.10;91.20
43808;DHT22;29438;50.664;10.098;2023-01-08T09:15:35;7.10;90.70
43808;DHT22;29438;50.664;10.098;2023-01-08T09:18:01;7.10;91.00
43808;DHT22;29438;50.664;10.098;2023-01-08T09:20:27;7.10;91.30
43808;DHT22;29438;50.664;10.098;2023-01-08T09:22:52;7.10;91.20
43808;DHT22;29438;50.664;10.098;2023-01-08T09:25:18;6.70;89.90
43808;DHT22;29438;50.664;10.098;2023-01-08T09:27:44;6.30;90.50
43808;DHT22;29438;50.664;10.098;2023-01-08T09:30:10;6.10;90.70
43808;DHT22;29438;50.664;10.098;2023-01-08T09:32:36;5.90;91.30
43808;DHT22;29438;50.664;10.098;2023-01-08T09:35:03;5.80;91.60
43808;DHT22;29438;50.664;10.098;2023-01-08T09:37:29;5.80;92.20
43808;DHT22;29438;50.664;10.098;2023-01-08T09:39:55;6.00;92.20
43808;DHT22;29438;50.664;10.098;2023-01-08T09:42:22;6.10;92.20
43808;DHT22;29438;50.664;10.098;2023-01-08T09:44:51;6.30;92.50
43808;DHT22;29438;50.664;10.098;2023-01-08T09:47:25;6.50;92.70
43808;DHT22;29438;50.664;10.098;2023-01-08T09:49:56;6.40;92.10
43808;DHT22;29438;50.664;10.098;2023-01-08T09:52:23;6.30;91.60
43808;DHT22;29438;50.664;10.098;2023-01-08T09:54:49;6.30;91.70
43808;DHT22;29438;50.664;10.098;2023-01-08T09:57:16;6.50;92.10
43808;DHT22;29438;50.664;10.098;2023-01-08T09:59:43;6.70;91.80
43808;DHT22;29438;50.664;10.098;2023-01-08T10:02:20;6.80;91.70
43808;DHT22;29438;50.664;10.098;2023-01-08T10:04:50;6.80;91.40
43808;DHT22;29438;50.664;10.098;2023-01-08T10:07:22;6.70;91.20
43808;DHT22;29438;50.664;10.098;2023-01-08T10:09:49;6.50;90.60
43808;DHT22;29438;50.664;10.098;2023-01-08T10:12:29;6.30;90.90
43808;DHT22;29438;50.664;10.098;2023-01-08T10:14:59;6.30;91.20
43808;DHT22;29438;50.664;10.098;2023-01-08T10:17:34;6.30;91.60
43808;DHT22;29438;50.664;10.098;2023-01-08T10:20:07;6.20;91.70
43808;DHT22;29438;50.664;10.098;2023-01-08T10:22:34;6.40;92.40
43808;DHT22;29438;50.664;10.098;2023-01-08T10:25:08;6.50;91.90
43808;DHT22;29438;50.664;10.098;2023-01-08T10:27:55;6.50;91.70
43808;DHT22;29438;50.664;10.098;2023-01-08T10:30:34;6.40;91.90
43808;DHT22;29438;50.664;10.098;2023-01-08T10:33:15;6.40;91.90
43808;DHT22;29438;50.664;10.098;2023-01-08T10:35:49;6.60;92.20
43808;DHT22;29438;50.664;10.098;2023-01-08T10:38:35;6.90;92.40
43808;DHT22;29438;50.664;10.098;2023-01-08T10:41:04;7.10;92.30
43808;DHT22;29438;50.664;10.098;2023-01-08T10:46:30;7.40;91.60
43808;DHT22;29438;50.664;10.098;2023-01-08T10:49:00;7.50;91.20
43808;DHT22;29438;50.664;10.098;2023-01-08T10:51:28;7.50;90.70
43808;DHT22;29438;50.664;10.098;2023-01-08T10:53:59;7.50;90.50
43808;DHT22;29438;50.664;10.098;2023-01-08T10:56:28;7.50;90.20
43808;DHT22;29438;50.664;10.098;2023-01-08T10:58:55;7.70;90.40
43808;DHT22;29438;50.664;10.098;2023-01-08T11:01:28;7.70;89.50
43808;DHT22;29438;50.664;10.098;2023-01-08T11:03:59;7.70;89.70
43808;DHT22;29438;50.664;10.098;2023-01-08T11:06:27;7.80;89.70
43808;DHT22;29438;50.664;10.098;2023-01-08T11:08:56;7.90;89.60
43808;DHT22;29438;50.664;10.098;2023-01-08T11:11:22;7.90;89.30
43808;DHT22;29438;50.664;10.098;2023-01-08T11:13:56;7.90;88.50
43808;DHT22;29438;50.664;10.098;2023-01-08T11:16:30;7.80;88.60
43808;DHT22;29438;50.664;10.098;2023-01-08T11:18:56;7.80;88.50
43808;DHT22;29438;50.664;10.098;2023-01-08T11:21:25;7.90;89.30
43808;DHT22;29438;50.664;10.098;2023-01-08T11:24:10;7.80;89.10
43808;DHT22;29438;50.664;10.098;2023-01-08T11:26:40;7.80;88.70
43808;DHT22;29438;50.664;10.098;2023-01-08T11:37:26;7.80;88.90
43808;DHT22;29438;50.664;10.098;2023-01-08T11:39:53;7.70;89.00
43808;DHT22;29438;50.664;10.098;2023-01-08T11:42:31;7.80;89.00
43808;DHT22;29438;50.664;10.098;2023-01-08T11:50:21;7.70;89.10
43808;DHT22;29438;50.664;10.098;2023-01-08T11:56:32;7.70;88.80
43808;DHT22;29438;50.664;10.098;2023-01-08T11:59:28;7.60;88.70
43808;DHT22;29438;50.664;10.098;2023-01-08T12:05:45;7.60;89.20
43808;DHT22;29438;50.664;10.098;2023-01-08T12:08:04;7.70;89.00
43808;DHT22;29438;50.664;10.098;2023-01-08T12:16:23;7.80;88.60
43808;DHT22;29438;50.664;10.098;2023-01-08T12:22:04;7.90;88.10
43808;DHT22;29438;50.664;10.098;2023-01-08T12:30:25;7.90;87.30
43808;DHT22;29438;50.664;10.098;2023-01-08T12:33:14;7.90;87.40
43808;DHT22;29438;50.664;10.098;2023-01-08T12:35:48;7.90;87.60
43808;DHT22;29438;50.664;10.098;2023-01-08T12:38:20;8.00;87.80
43808;DHT22;29438;50.664;10.098;2023-01-08T12:40:53;8.10;87.40
43808;DHT22;29438;50.664;10.098;2023-01-08T12:46:26;8.30;87.40
43808;DHT22;29438;50.664;10.098;2023-01-08T12:48:54;8.10;87.50
43808;DHT22;29438;50.664;10.098;2023-01-08T12:56:49;7.70;88.70
43808;DHT22;29438;50.664;10.098;2023-01-08T13:04:51;7.70;88.30
43808;DHT22;29438;50.664;10.098;2023-01-08T13:07:22;7.70;88.30
43808;DHT22;29438;50.664;10.098;2023-01-08T13:10:02;7.70;88.30
43808;DHT22;29438;50.664;10.098;2023-01-08T13:12:37;7.70;88.10
43808;DHT22;29438;50.664;10.098;2023-01-08T13:15:06;7.60;87.80
43808;DHT22;29438;50.664;10.098;2023-01-08T13:17:32;7.50;87.90
43808;DHT22;29438;50.664;10.098;2023-01-08T13:20:04;7.60;88.20
43808;DHT22;29438;50.664;10.098;2023-01-08T13:22:34;7.80;87.50
43808;DHT22;29438;50.664;10.098;2023-01-08T13:27:42;8.20;87.20
43808;DHT22;29438;50.664;10.098;2023-01-08T13:30:31;8.50;86.80
43808;DHT22;29438;50.664;10.098;2023-01-08T13:32:57;8.50;85.40
43808;DHT22;29438;50.664;10.098;2023-01-08T13:35:31;8.40;85.70
43808;DHT22;29438;50.664;10.098;2023-01-08T13:38:13;8.30;85.50
43808;DHT22;29438;50.664;10.098;2023-01-08T13:43:12;8.20;85.70
43808;DHT22;29438;50.664;10.098;2023-01-08T13:45:39;8.30;86.20
43808;DHT22;29438;50.664;10.098;2023-01-08T13:48:05;8.40;85.80
43808;DHT22;29438;50.664;10.098;2023-01-08T13:50:31;8.60;85.50
43808;DHT22;29438;50.664;10.098;2023-01-08T13:53:01;8.50;85.00
43808;DHT22;29438;50.664;10.098;2023-01-08T13:55:35;8.40;84.90
43808;DHT22;29438;50.664;10.098;2023-01-08T13:58:14;8.30;85.40
43808;DHT22;29438;50.664;10.098;2023-01-08T14:03:34;7.80;86.10
43808;DHT22;29438;50.664;10.098;2023-01-08T14:06:16;7.60;86.70
43808;DHT22;29438;50.664;10.098;2023-01-08T14:12:11;7.50;87.10
43808;DHT22;29438;50.664;10.098;2023-01-08T14:14:38;7.60;86.90
43808;DHT22;29438;50.664;10.098;2023-01-08T14:17:05;7.60;86.80
43808;DHT22;29438;50.664;10.098;2023-01-08T14:19:31;7.70;86.50
43808;DHT22;29438;50.664;10.098;2023-01-08T14:21:57;7.70;86.60
43808;DHT22;29438;50.664;10.098;2023-01-08T14:24:25;7.70;86.30
43808;DHT22;29438;50.664;10.098;2023-01-08T14:26:57;7.70;85.90
43808;DHT22;29438;50.664;10.098;2023-01-08T14:29:25;7.70;85.70
43808;DHT22;29438;50.664;10.098;2023-01-08T14:31:54;7.70;85.70
43808;DHT22;29438;50.664;10.098;2023-01-08T14:34:21;7.70;85.80
43808;DHT22;29438;50.664;10.098;2023-01-08T14:36:49;7.80;86.00
43808;DHT22;29438;50.664;10.098;2023-01-08T14:41:49;7.60;85.70
43808;DHT22;29438;50.664;10.098;2023-01-08T14:44:34;7.50;86.30
43808;DHT22;29438;50.664;10.098;2023-01-08T14:50:01;7.50;87.00
43808;DHT22;29438;50.664;10.098;2023-01-08T14:52:27;7.40;87.10
43808;DHT22;29438;50.664;10.098;2023-01-08T14:54:56;7.40;87.20
43808;DHT22;29438;50.664;10.098;2023-01-08T14:57:24;7.40;87.20
43808;DHT22;29438;50.664;10.098;2023-01-08T14:59:56;7.30;87.40
43808;DHT22;29438;50.664;10.098;2023-01-08T15:02:30;7.30;87.20
43808;DHT22;29438;50.664;10.098;2023-01-08T15:05:27;7.30;87.30
43808;DHT22;29438;50.664;10.098;2023-01-08T15:08:23;7.20;87.80
43808;DHT22;29438;50.664;10.098;2023-01-08T15:13:44;7.10;88.30
43808;DHT22;29438;50.664;10.098;2023-01-08T15:16:16;7.10;88.30
43808;DHT22;29438;50.664;10.098;2023-01-08T15:18:49;7.00;88.30
43808;DHT22;29438;50.664;10.098;2023-01-08T15:21:20;7.00;88.40
43808;DHT22;29438;50.664;10.098;2023-01-08T15:23:49;7.00;88.30
43808;DHT22;29438;50.664;10.098;2023-01-08T15:26:16;7.00;88.30
43808;DHT22;29438;50.664;10.098;2023-01-08T15:29:03;7.00;88.30
43808;DHT22;29438;50.664;10.098;2023-01-08T15:31:32;7.10;88.50
43808;DHT22;29438;50.664;10.098;2023-01-08T15:34:09;7.20;88.20
43808;DHT22;29438;50.664;10.098;2023-01-08T15:36:34;7.10;88.30
43808;DHT22;29438;50.664;10.098;2023-01-08T15:39:00;7.20;88.40
43808;DHT22;29438;50.664;10.098;2023-01-08T15:41:34;7.20;88.10
43808;DHT22;29438;50.664;10.098;2023-01-08T15:44:18;7.20;88.20
43808;DHT22;29438;50.664;10.098;2023-01-08T15:46:44;7.20;88.10
43808;DHT22;29438;50.664;10.098;2023-01-08T15:49:09;7.20;88.00
43808;DHT22;29438;50.664;10.098;2023-01-08T15:51:37;7.20;88.20
43808;DHT22;29438;50.664;10.098;2023-01-08T15:54:04;7.20;88.20
43808;DHT22;29438;50.664;10.098;2023-01-08T15:56:29;7.20;87.80
43808;DHT22;29438;50.664;10.098;2023-01-08T15:58:55;7.20;88.70
43808;DHT22;29438;50.664;10.098;2023-01-08T16:01:20;7.00;89.60
43808;DHT22;29438;50.664;10.098;2023-01-08T16:03:47;6.80;90.20
43808;DHT22;29438;50.664;10.098;2023-01-08T16:06:12;6.80;90.50
43808;DHT22;29438;50.664;10.098;2023-01-08T16:08:38;6.80;90.60
43808;DHT22;29438;50.664;10.098;2023-01-08T16:11:03;6.70;90.70
43808;DHT22;29438;50.664;10.098;2023-01-08T16:13:29;6.60;90.50
43808;DHT22;29438;50.664;10.098;2023-01-08T16:15:54;6.70;90.70
43808;DHT22;29438;50.664;10.098;2023-01-08T16:18:20;6.60;90.80
43808;DHT22;29438;50.664;10.098;2023-01-08T16:20:45;6.50;91.10
43808;DHT22;29438;50.664;10.098;2023-01-08T16:23:11;6.50;91.50
43808;DHT22;29438;50.664;10.098;2023-01-08T16:25:39;6.50;91.60
43808;DHT22;29438;50.664;10.098;2023-01-08T16:28:05;6.60;91.60
43808;DHT22;29438;50.664;10.098;2023-01-08T16:30:30;6.70;91.70
43808;DHT22;29438;50.664;10.098;2023-01-08T16:32:56;6.70;91.70
43808;DHT22;29438;50.664;10.098;2023-01-08T16:35:21;6.70;91.70
43808;DHT22;29438;50.664;10.098;2023-01-08T16:37:47;6.70;91.80
43808;DHT22;29438;50.664;10.098;2023-01-08T16:40:13;6.70;91.80
43808;DHT22;29438;50.664;10.098;2023-01-08T16:42:39;6.70;91.90
43808;DHT22;29438;50.664;10.098;2023-01-08T16:45:05;6.70;92.00
43808;DHT22;29438;50.664;10.098;2023-01-08T16:47:33;6.70;92.10
43808;DHT22;29438;50.664;10.098;2023-01-08T16:50:00;6.70;92.10
43808;DHT22;29438;50.664;10.098;2023-01-08T16:52:26;6.70;92.20
43808;DHT22;29438;50.664;10.098;2023-01-08T16:54:51;6.70;92.20
43808;DHT22;29438;50.664;10.098;2023-01-08T16:57:17;6.70;92.20
43808;DHT22;29438;50.664;10.098;2023-01-08T16:59:42;6.70;92.20
43808;DHT22;29438;50.664;10.098;2023-01-08T17:02:09;6.70;92.20